Time;durP1;ratioP1;P1;durP2;ratioP2;P2;SDS_P1;SDS_P2;PMS_P1;PMS_P2;Temp;Humidity;BMP_temperature;BMP_pressure;BME280_temperature;BME280_humidity;BME280_pressure;Samples;Min_cycle;Max_cycle;Signal;HPM_P1;HPM_P2
2021/10/31 00:00:35;;;;;;;4.00;3.70;;;11.20;99.90;;;;;;5031565;28;20168;-69
2021/10/31 00:03:00;;;;;;;4.63;4.30;;;11.20;99.90;;;;;;5031327;28;20554;-69
2021/10/31 00:05:26;;;;;;;4.40;4.10;;;11.10;99.90;;;;;;5031603;28;20168;-69
2021/10/31 00:07:51;;;;;;;4.90;4.60;;;11.10;99.90;;;;;;5032111;28;20173;-69
2021/10/31 00:10:19;;;;;;;3.90;3.50;;;11.10;99.90;;;;;;5032229;28;20180;-69
2021/10/31 00:12:45;;;;;;;4.07;3.87;;;11.00;99.90;;;;;;5031911;28;20692;-69
2021/10/31 00:15:11;;;;;;;4.37;3.97;;;11.00;99.90;;;;;;5032012;28;20543;-69
2021/10/31 00:17:36;;;;;;;4.70;4.30;;;10.90;99.90;;;;;;5032122;28;20164;-69
2021/10/31 00:20:04;;;;;;;3.33;3.13;;;10.90;99.90;;;;;;5032105;28;20522;-69
2021/10/31 00:22:29;;;;;;;5.00;4.20;;;10.90;99.90;;;;;;5031906;28;20199;-69
2021/10/31 00:24:55;;;;;;;5.63;3.73;;;10.90;99.90;;;;;;5031488;28;20466;-69
2021/10/31 00:27:20;;;;;;;5.50;4.13;;;11.00;99.90;;;;;;5031949;28;20633;-69
2021/10/31 00:29:46;;;;;;;2.70;2.60;;;11.00;99.90;;;;;;5031863;28;20165;-69
2021/10/31 00:32:11;;;;;;;4.93;4.53;;;11.10;99.90;;;;;;5031833;28;20176;-69
2021/10/31 00:34:37;;;;;;;3.93;3.63;;;11.10;99.90;;;;;;5031440;28;20200;-69
2021/10/31 00:37:03;;;;;;;4.50;4.20;;;11.10;99.90;;;;;;5031971;28;20181;-69
2021/10/31 00:39:29;;;;;;;3.97;3.67;;;11.00;99.90;;;;;;5031933;28;20610;-69
2021/10/31 00:41:55;;;;;;;3.93;3.63;;;11.10;99.90;;;;;;5032064;28;20192;-68
2021/10/31 00:44:21;;;;;;;4.40;4.20;;;11.00;99.90;;;;;;5031351;28;20962;-68
2021/10/31 00:46:46;;;;;;;4.10;3.70;;;10.90;99.90;;;;;;5031899;28;20438;-69
2021/10/31 00:49:12;;;;;;;3.90;3.60;;;10.80;99.90;;;;;;5031783;28;20672;-69
2021/10/31 00:51:39;;;;;;;4.63;4.33;;;10.80;99.90;;;;;;5031731;28;20180;-69
2021/10/31 00:54:06;;;;;;;7.17;4.17;;;10.70;99.90;;;;;;5031273;28;20211;-69
2021/10/31 00:56:32;;;;;;;4.97;4.67;;;10.70;99.90;;;;;;5031616;28;20407;-68
2021/10/31 00:58:58;;;;;;;3.93;3.63;;;10.60;99.90;;;;;;5031747;28;20904;-69
2021/10/31 01:01:26;;;;;;;4.13;3.90;;;10.50;99.90;;;;;;5031761;28;20418;-68
2021/10/31 01:03:52;;;;;;;3.13;2.93;;;10.50;99.90;;;;;;5031101;28;20193;-68
2021/10/31 01:07:03;;;;;;;4.80;3.80;;;10.50;99.90;;;;;;5031759;28;20407;-69
2021/10/31 01:09:46;;;;;;;4.07;3.87;;;10.50;99.90;;;;;;5031364;28;20487;-69
2021/10/31 01:12:37;;;;;;;4.13;3.93;;;10.40;99.90;;;;;;5031579;28;20438;-68
2021/10/31 01:15:12;;;;;;;5.47;4.33;;;10.40;99.90;;;;;;5033075;28;20455;-69
2021/10/31 01:18:15;;;;;;;3.37;3.27;;;10.30;99.90;;;;;;5035595;28;20418;-69
2021/10/31 01:20:59;;;;;;;4.27;3.87;;;10.30;99.90;;;;;;5035471;28;20875;-68
2021/10/31 01:23:49;;;;;;;4.27;3.97;;;10.30;99.90;;;;;;5035167;28;20423;-68
2021/10/31 01:26:46;;;;;;;4.90;4.23;;;10.30;99.90;;;;;;5035518;28;20417;-68
2021/10/31 01:29:40;;;;;;;4.20;3.90;;;10.20;99.90;;;;;;5035409;28;20756;-69
2021/10/31 01:32:31;;;;;;;5.10;4.07;;;10.10;99.90;;;;;;5035425;28;20457;-69
2021/10/31 01:35:07;;;;;;;4.40;4.10;;;10.20;99.90;;;;;;5034627;28;20545;-68
2021/10/31 01:37:55;;;;;;;3.53;3.23;;;10.10;99.90;;;;;;5035197;28;20774;-68
2021/10/31 01:40:28;;;;;;;4.13;3.80;;;10.10;99.90;;;;;;5035226;28;20843;-68
2021/10/31 01:43:11;;;;;;;3.67;3.37;;;10.10;99.90;;;;;;5034600;28;20490;-67
2021/10/31 01:45:43;;;;;;;3.07;2.87;;;10.10;99.90;;;;;;5035052;28;20468;-68
2021/10/31 01:48:46;;;;;;;6.20;3.63;;;10.00;99.90;;;;;;5035176;28;20498;-68
2021/10/31 01:51:30;;;;;;;3.53;3.23;;;10.00;99.90;;;;;;5034211;28;20764;-68
2021/10/31 01:54:05;;;;;;;3.60;3.37;;;9.90;99.90;;;;;;5034184;28;20469;-69
2021/10/31 01:56:34;;;;;;;3.60;3.30;;;9.90;99.90;;;;;;5034869;28;21006;-69
2021/10/31 01:59:01;;;;;;;3.80;3.50;;;9.90;99.90;;;;;;5034810;28;20414;-69
2021/10/31 02:01:29;;;;;;;3.10;2.90;;;9.80;99.90;;;;;;5035497;28;20411;-69
2021/10/31 02:03:56;;;;;;;3.03;2.83;;;9.80;99.90;;;;;;5034415;28;20481;-68
2021/10/31 02:06:23;;;;;;;2.43;2.33;;;9.80;99.90;;;;;;5034741;28;20403;-70
2021/10/31 02:08:50;;;;;;;4.17;3.10;;;9.70;99.90;;;;;;5034658;28;20414;-68
2021/10/31 02:11:18;;;;;;;3.43;3.20;;;9.70;99.90;;;;;;5034700;28;20404;-69
2021/10/31 02:13:46;;;;;;;3.00;2.80;;;9.70;99.90;;;;;;5034075;28;20458;-69
2021/10/31 02:16:15;;;;;;;3.63;3.33;;;9.60;99.90;;;;;;5034608;28;20427;-69
2021/10/31 02:18:42;;;;;;;3.07;2.87;;;9.50;99.90;;;;;;5034436;28;20926;-69
2021/10/31 02:21:10;;;;;;;2.73;2.53;;;9.40;99.90;;;;;;5034490;28;20414;-69
2021/10/31 02:23:35;;;;;;;2.20;2.10;;;9.50;99.90;;;;;;5034097;28;20426;-69
2021/10/31 02:26:01;;;;;;;2.10;2.00;;;9.50;99.90;;;;;;5034106;28;20473;-68
2021/10/31 02:28:27;;;;;;;2.70;2.50;;;9.40;99.90;;;;;;5034394;28;20193;-68
2021/10/31 02:30:54;;;;;;;2.80;2.20;;;9.40;99.90;;;;;;5034321;28;20172;-69
2021/10/31 02:33:19;;;;;;;1.97;1.87;;;9.30;99.90;;;;;;5033704;28;20463;-69
2021/10/31 02:35:45;;;;;;;3.07;2.77;;;9.30;99.90;;;;;;5034204;28;20768;-69
2021/10/31 02:38:11;;;;;;;2.17;1.97;;;9.20;99.90;;;;;;5034228;28;20299;-68
2021/10/31 02:40:36;;;;;;;2.17;2.07;;;9.10;99.90;;;;;;5034238;28;20668;-69
2021/10/31 02:43:06;;;;;;;2.00;1.90;;;9.20;99.90;;;;;;5033316;28;20168;-68
2021/10/31 02:45:31;;;;;;;2.10;2.00;;;9.00;99.90;;;;;;5034063;28;20179;-68
2021/10/31 02:48:11;;;;;;;1.83;1.73;;;9.00;99.90;;;;;;5033995;28;20411;-68
2021/10/31 02:50:41;;;;;;;2.40;2.30;;;9.00;99.90;;;;;;5033938;28;20664;-69
2021/10/31 02:53:25;;;;;;;2.30;2.20;;;8.90;99.90;;;;;;5049399;23;20593;-69
2021/10/31 02:56:06;;;;;;;3.00;2.80;;;8.80;99.90;;;;;;5053709;28;20413;-68
2021/10/31 02:58:45;;;;;;;3.10;2.77;;;8.80;99.90;;;;;;5053699;28;20395;-69
2021/10/31 03:01:12;;;;;;;3.80;2.63;;;8.70;99.90;;;;;;5053931;28;20437;-68
2021/10/31 03:03:38;;;;;;;4.63;3.00;;;8.70;99.90;;;;;;5053264;28;20430;-69
2021/10/31 03:06:04;;;;;;;2.73;2.57;;;8.60;99.90;;;;;;5053668;28;20764;-68
2021/10/31 03:08:30;;;;;;;2.37;2.17;;;8.60;99.90;;;;;;5053558;28;20460;-68
2021/10/31 03:11:00;;;;;;;3.90;2.73;;;8.60;99.90;;;;;;5053396;28;20761;-68
2021/10/31 03:13:26;;;;;;;2.50;2.40;;;8.60;99.90;;;;;;5052821;28;20553;-68
2021/10/31 03:15:53;;;;;;;2.73;2.53;;;8.60;99.90;;;;;;5053451;28;20870;-68
2021/10/31 03:18:19;;;;;;;2.90;2.70;;;8.60;99.90;;;;;;5053381;28;20481;-68
2021/10/31 03:20:45;;;;;;;2.67;2.47;;;8.60;99.90;;;;;;5053336;28;20488;-68
2021/10/31 03:23:10;;;;;;;2.63;2.53;;;8.60;99.90;;;;;;5052903;28;20485;-68
2021/10/31 03:25:36;;;;;;;3.80;3.57;;;8.60;99.90;;;;;;5053159;28;20839;-69
2021/10/31 03:28:02;;;;;;;4.07;3.87;;;8.60;99.90;;;;;;5053135;28;20204;-69
2021/10/31 03:30:28;;;;;;;4.73;4.43;;;8.60;99.90;;;;;;5053072;28;20176;-69
2021/10/31 03:32:53;;;;;;;5.67;5.17;;;8.60;99.90;;;;;;5052613;28;20164;-68
2021/10/31 03:35:19;;;;;;;5.43;4.93;;;8.70;99.90;;;;;;5053047;28;20472;-68
2021/10/31 03:37:45;;;;;;;5.33;4.93;;;8.80;99.90;;;;;;5052284;28;20247;-68
2021/10/31 03:40:11;;;;;;;6.50;5.33;;;8.80;99.90;;;;;;5052759;28;20267;-68
2021/10/31 03:42:37;;;;;;;7.07;6.47;;;8.90;99.90;;;;;;5052861;28;20172;-68
2021/10/31 03:45:06;;;;;;;6.13;5.63;;;8.90;99.90;;;;;;5052446;28;20428;-69
2021/10/31 03:47:33;;;;;;;6.97;6.27;;;8.90;99.90;;;;;;5052756;28;20414;-68
2021/10/31 03:49:59;;;;;;;6.33;5.83;;;9.00;99.90;;;;;;5052706;28;20451;-68
2021/10/31 03:52:24;;;;;;;6.97;6.37;;;9.00;99.90;;;;;;5052644;28;20414;-68
2021/10/31 03:54:50;;;;;;;6.60;5.90;;;9.00;99.90;;;;;;5052056;28;20294;-69
2021/10/31 03:57:16;;;;;;;6.47;5.90;;;9.10;99.90;;;;;;5052571;28;20167;-68
2021/10/31 03:59:41;;;;;;;5.70;5.30;;;9.10;99.90;;;;;;5052479;28;20171;-69
2021/10/31 04:02:07;;;;;;;6.73;6.10;;;9.20;99.90;;;;;;5052588;28;20353;-68
2021/10/31 04:04:32;;;;;;;5.70;5.13;;;9.10;99.90;;;;;;5051901;28;20194;-69
2021/10/31 04:06:58;;;;;;;5.40;5.00;;;9.10;99.90;;;;;;5052469;28;20254;-69
2021/10/31 04:09:24;;;;;;;5.17;4.77;;;9.10;99.90;;;;;;5052258;28;20174;-68
2021/10/31 04:11:50;;;;;;;9.00;4.43;;;9.20;99.90;;;;;;5052359;28;20544;-68
2021/10/31 04:14:16;;;;;;;4.10;3.80;;;9.30;99.90;;;;;;5051845;28;20210;-69
2021/10/31 04:16:41;;;;;;;5.27;4.80;;;9.30;99.90;;;;;;5052294;28;20771;-69
2021/10/31 04:19:07;;;;;;;4.93;4.57;;;9.30;99.90;;;;;;5052254;28;20257;-68
2021/10/31 04:21:32;;;;;;;4.43;4.13;;;9.40;99.90;;;;;;5052183;28;20254;-68
2021/10/31 04:23:58;;;;;;;5.20;4.80;;;9.40;99.90;;;;;;5051666;28;20187;-69
2021/10/31 04:26:23;;;;;;;5.17;4.77;;;9.30;99.90;;;;;;5052137;28;20195;-68
2021/10/31 04:28:49;;;;;;;4.97;4.60;;;9.40;99.90;;;;;;5052042;28;20176;-69
2021/10/31 04:31:15;;;;;;;5.90;5.40;;;9.40;99.90;;;;;;5052059;28;20233;-69
2021/10/31 04:33:40;;;;;;;5.67;5.10;;;9.40;99.90;;;;;;5051851;28;20200;-69
2021/10/31 04:36:07;;;;;;;10.57;5.83;;;9.40;99.90;;;;;;5051952;28;20583;-69
2021/10/31 04:38:33;;;;;;;7.13;5.40;;;9.40;99.90;;;;;;5051805;28;20370;-69
2021/10/31 04:40:59;;;;;;;6.17;5.57;;;9.40;99.90;;;;;;5051696;28;20954;-69
2021/10/31 04:43:26;;;;;;;4.60;4.20;;;9.40;99.90;;;;;;5051447;28;20517;-68
2021/10/31 04:45:53;;;;;;;6.40;5.80;;;9.40;99.90;;;;;;5051848;28;20410;-69
2021/10/31 04:48:19;;;;;;;5.43;5.03;;;9.30;99.90;;;;;;5051823;28;20469;-68
2021/10/31 04:50:45;;;;;;;5.20;4.80;;;9.30;99.90;;;;;;5051757;28;20906;-68
2021/10/31 04:53:11;;;;;;;5.67;5.27;;;9.40;99.90;;;;;;5051072;28;20487;-68
2021/10/31 04:55:40;;;;;;;5.20;4.80;;;9.40;99.90;;;;;;5051649;28;20801;-68
2021/10/31 04:58:07;;;;;;;18.03;5.70;;;9.40;99.90;;;;;;5052098;28;20538;-68
2021/10/31 05:00:33;;;;;;;6.10;5.60;;;9.30;99.90;;;;;;5051576;28;20411;-68
2021/10/31 05:02:58;;;;;;;6.43;5.30;;;9.30;99.90;;;;;;5051225;28;20449;-69
2021/10/31 05:05:25;;;;;;;5.90;5.47;;;9.30;99.90;;;;;;5051631;28;20461;-68
2021/10/31 05:07:55;;;;;;;5.90;5.40;;;9.30;99.90;;;;;;5051515;28;20172;-69
2021/10/31 05:10:22;;;;;;;5.30;4.70;;;9.30;99.90;;;;;;5051641;28;20399;-68
2021/10/31 05:12:48;;;;;;;4.70;4.30;;;9.30;99.90;;;;;;5051047;28;20413;-68
2021/10/31 05:15:14;;;;;;;4.67;4.27;;;9.30;99.90;;;;;;5051474;28;20433;-68
2021/10/31 05:17:41;;;;;;;5.03;4.63;;;9.30;99.90;;;;;;5051516;28;20410;-68
2021/10/31 05:20:09;;;;;;;4.40;4.20;;;9.40;99.90;;;;;;5051284;28;20415;-68
2021/10/31 05:22:35;;;;;;;4.73;4.33;;;9.30;99.90;;;;;;5051436;28;20471;-68
2021/10/31 05:25:01;;;;;;;5.17;4.67;;;9.20;99.90;;;;;;5051232;28;20434;-68
2021/10/31 05:27:27;;;;;;;4.60;4.20;;;9.30;99.90;;;;;;5051458;28;20437;-68
2021/10/31 05:29:52;;;;;;;4.73;4.33;;;9.20;99.90;;;;;;5051268;28;20226;-68
2021/10/31 05:32:18;;;;;;;4.90;4.50;;;9.20;99.90;;;;;;5051340;28;20172;-68
2021/10/31 05:34:43;;;;;;;5.37;4.97;;;9.20;99.90;;;;;;5050786;28;20257;-68
2021/10/31 05:37:09;;;;;;;5.00;4.10;;;9.20;99.90;;;;;;5051333;28;20247;-68
2021/10/31 05:39:35;;;;;;;4.83;4.43;;;9.10;99.90;;;;;;5033285;28;20640;-68
2021/10/31 05:42:01;;;;;;;4.70;4.40;;;9.10;99.90;;;;;;5051224;28;20436;-68
2021/10/31 05:44:26;;;;;;;4.50;4.10;;;9.10;99.90;;;;;;5050812;28;20246;-68
2021/10/31 05:46:52;;;;;;;4.67;4.37;;;9.00;99.90;;;;;;5051273;28;20247;-68
2021/10/31 05:49:17;;;;;;;4.73;4.23;;;9.00;99.90;;;;;;5051141;28;20171;-68
2021/10/31 05:51:43;;;;;;;4.43;4.03;;;9.00;99.90;;;;;;5051186;28;20180;-68
2021/10/31 05:54:09;;;;;;;5.23;4.80;;;9.00;99.90;;;;;;5050647;28;20597;-68
2021/10/31 05:56:35;;;;;;;4.70;4.30;;;8.90;99.90;;;;;;5051205;28;20168;-68
2021/10/31 05:59:01;;;;;;;7.03;5.07;;;8.90;99.90;;;;;;5051040;28;20410;-68
2021/10/31 06:01:26;;;;;;;5.13;4.53;;;8.90;99.90;;;;;;5053550;28;20171;-68
2021/10/31 06:03:52;;;;;;;4.20;3.90;;;8.80;99.90;;;;;;5054187;28;20804;-69
2021/10/31 06:06:22;;;;;;;5.73;5.33;;;8.80;99.90;;;;;;5054652;28;20259;-68
2021/10/31 06:08:48;;;;;;;5.73;5.13;;;8.70;99.90;;;;;;5054630;28;20171;-68
2021/10/31 06:11:15;;;;;;;5.53;4.97;;;8.70;99.90;;;;;;5054635;28;20414;-68
2021/10/31 06:13:40;;;;;;;5.40;5.00;;;8.70;99.90;;;;;;5054067;28;20797;-68
2021/10/31 06:16:07;;;;;;;4.40;4.10;;;8.70;99.90;;;;;;5054368;28;20413;-68
2021/10/31 06:18:34;;;;;;;4.00;3.63;;;8.80;99.90;;;;;;5054351;28;20168;-68
2021/10/31 06:21:00;;;;;;;4.30;4.00;;;8.70;99.90;;;;;;5054385;28;20410;-67
2021/10/31 06:23:26;;;;;;;5.60;5.10;;;8.70;99.90;;;;;;5053937;28;20840;-68
2021/10/31 06:25:52;;;;;;;4.87;4.37;;;8.70;99.90;;;;;;5054343;28;20418;-69
2021/10/31 06:28:17;;;;;;;4.97;4.60;;;8.70;99.90;;;;;;5054393;28;20639;-68
2021/10/31 06:30:43;;;;;;;6.00;4.40;;;8.70;99.90;;;;;;5054265;28;20258;-68
2021/10/31 06:33:08;;;;;;;4.37;4.00;;;8.70;99.90;;;;;;5053590;28;20285;-68
2021/10/31 06:35:34;;;;;;;5.80;5.17;;;8.70;99.90;;;;;;5054195;28;20234;-68
2021/10/31 06:38:01;;;;;;;4.87;4.40;;;8.80;99.90;;;;;;5054061;28;20172;-68
2021/10/31 06:40:27;;;;;;;5.77;5.13;;;8.70;99.90;;;;;;5053979;28;20198;-68
2021/10/31 06:42:53;;;;;;;5.97;4.47;;;8.80;99.90;;;;;;5053568;28;20528;-68
2021/10/31 06:45:18;;;;;;;5.30;4.80;;;8.80;99.90;;;;;;5054079;28;20461;-68
2021/10/31 06:47:44;;;;;;;4.90;4.50;;;8.80;99.90;;;;;;5054298;28;20174;-68
2021/10/31 06:50:10;;;;;;;5.53;4.60;;;8.80;99.90;;;;;;5054208;28;20402;-68
2021/10/31 06:52:35;;;;;;;4.87;4.40;;;8.80;99.90;;;;;;5053710;28;20159;-68
2021/10/31 06:55:01;;;;;;;4.67;4.27;;;8.80;99.90;;;;;;5053332;28;20203;-68
2021/10/31 06:57:27;;;;;;;5.33;4.43;;;8.80;99.90;;;;;;5054165;28;20499;-69
2021/10/31 06:59:52;;;;;;;3.83;3.57;;;8.80;99.90;;;;;;5053635;28;20413;-68
2021/10/31 07:02:18;;;;;;;7.40;6.70;;;8.90;99.90;;;;;;5053536;28;20227;-68
2021/10/31 07:04:43;;;;;;;7.90;4.40;;;9.00;99.90;;;;;;5035563;28;20200;-68
2021/10/31 07:07:09;;;;;;;4.90;4.50;;;9.00;99.90;;;;;;5053531;28;20177;-68
2021/10/31 07:09:35;;;;;;;10.87;5.30;;;9.00;99.90;;;;;;5053471;28;20262;-69
2021/10/31 07:12:00;;;;;;;4.90;4.30;;;9.10;99.90;;;;;;5052396;28;20200;-69
2021/10/31 07:14:26;;;;;;;3.90;3.60;;;9.10;99.90;;;;;;5051625;28;20207;-68
2021/10/31 07:16:52;;;;;;;4.87;4.47;;;9.10;99.90;;;;;;5053263;28;20678;-68
2021/10/31 07:19:18;;;;;;;4.30;4.00;;;9.10;99.90;;;;;;5051864;28;20418;-67
2021/10/31 07:21:45;;;;;;;5.10;4.67;;;9.20;99.90;;;;;;5053227;28;20399;-69
2021/10/31 07:24:10;;;;;;;5.93;5.43;;;9.20;99.90;;;;;;5052876;28;20183;-68
2021/10/31 07:26:36;;;;;;;5.40;4.27;;;9.20;99.90;;;;;;5053199;28;20455;-69
2021/10/31 07:29:05;;;;;;;8.50;4.70;;;9.30;99.90;;;;;;5053220;28;20203;-68
2021/10/31 07:31:32;;;;;;;4.87;4.47;;;9.40;99.90;;;;;;5052963;28;20164;-68
2021/10/31 07:33:58;;;;;;;5.60;5.10;;;9.30;99.90;;;;;;5052546;28;21021;-68
2021/10/31 07:36:24;;;;;;;10.27;7.20;;;9.40;99.90;;;;;;5052922;28;20493;-68
2021/10/31 07:38:50;;;;;;;6.47;5.87;;;9.40;99.90;;;;;;5052927;28;20225;-68
2021/10/31 07:41:15;;;;;;;5.43;5.03;;;9.50;99.90;;;;;;5052903;28;20171;-68
2021/10/31 07:43:41;;;;;;;3.97;3.70;;;9.50;99.90;;;;;;5052362;28;20188;-68
2021/10/31 07:46:07;;;;;;;5.60;4.87;;;9.60;99.90;;;;;;5052789;28;20179;-69
2021/10/31 07:48:33;;;;;;;6.87;4.77;;;9.60;99.90;;;;;;5052782;28;20431;-68
2021/10/31 07:50:59;;;;;;;6.90;4.93;;;9.60;99.90;;;;;;5052667;28;20402;-68
2021/10/31 07:53:24;;;;;;;6.27;5.77;;;9.60;99.90;;;;;;5052152;28;20215;-68
2021/10/31 07:55:52;;;;;;;6.00;5.50;;;9.70;99.90;;;;;;5052688;28;20636;-69
2021/10/31 07:58:21;;;;;;;4.73;4.33;;;9.70;99.90;;;;;;5052631;28;20163;-68
2021/10/31 08:00:48;;;;;;;5.70;5.27;;;9.70;99.90;;;;;;5052358;28;20406;-69
2021/10/31 08:03:14;;;;;;;5.03;4.60;;;9.80;99.90;;;;;;5052627;28;20422;-66
2021/10/31 08:05:39;;;;;;;5.77;4.87;;;9.80;99.90;;;;;;5052387;28;20997;-66
2021/10/31 08:08:05;;;;;;;4.33;4.00;;;9.90;99.90;;;;;;5052446;28;20263;-66
2021/10/31 08:10:31;;;;;;;4.33;3.93;;;10.00;99.90;;;;;;5052398;28;20478;-67
2021/10/31 08:12:57;;;;;;;5.40;4.93;;;10.00;99.90;;;;;;5051767;28;20663;-67
2021/10/31 08:15:22;;;;;;;3.87;3.57;;;10.10;99.90;;;;;;5052143;28;20411;-67
2021/10/31 08:17:48;;;;;;;6.90;5.00;;;10.20;99.90;;;;;;5052249;28;20164;-67
2021/10/31 08:20:14;;;;;;;5.43;4.57;;;10.30;99.90;;;;;;5052080;28;20177;-70
2021/10/31 08:22:40;;;;;;;4.77;4.40;;;10.50;99.90;;;;;;5051764;28;20727;-68
2021/10/31 08:25:06;;;;;;;9.90;4.47;;;10.60;99.90;;;;;;5051825;28;20434;-68
2021/10/31 08:27:32;;;;;;;4.60;3.60;;;10.60;99.90;;;;;;5052111;28;20406;-67
2021/10/31 08:29:58;;;;;;;4.10;3.80;;;10.70;99.90;;;;;;5052389;28;20244;-66
2021/10/31 08:32:26;;;;;;;4.43;4.10;;;10.80;99.90;;;;;;5052024;28;20972;-66
2021/10/31 08:34:51;;;;;;;4.10;3.90;;;10.90;99.90;;;;;;5051485;28;20566;-66
2021/10/31 08:37:17;;;;;;;4.90;4.50;;;11.00;99.90;;;;;;5051961;28;20411;-67
2021/10/31 08:39:43;;;;;;;3.83;3.53;;;11.10;99.90;;;;;;5051863;28;20258;-67
2021/10/31 08:42:09;;;;;;;4.60;4.20;;;11.20;99.90;;;;;;5051840;28;20644;-66
2021/10/31 08:44:37;;;;;;;4.77;3.93;;;11.40;99.90;;;;;;5051285;28;20187;-68
2021/10/31 08:47:02;;;;;;;3.60;3.30;;;11.50;99.90;;;;;;5051786;28;20952;-67
2021/10/31 08:49:28;;;;;;;4.07;3.67;;;11.60;99.90;;;;;;5051712;28;20402;-67
2021/10/31 08:51:53;;;;;;;3.53;3.33;;;11.80;99.90;;;;;;5051801;28;20195;-67
2021/10/31 08:54:19;;;;;;;3.60;3.30;;;12.00;99.90;;;;;;5051188;28;20202;-67
2021/10/31 08:56:45;;;;;;;4.20;3.80;;;12.20;99.90;;;;;;5051689;28;20242;-66
2021/10/31 08:59:10;;;;;;;4.33;3.93;;;12.30;99.90;;;;;;5051616;28;20251;-67
2021/10/31 09:01:36;;;;;;;4.00;3.07;;;12.40;99.90;;;;;;5051664;28;20456;-66
2021/10/31 09:04:02;;;;;;;4.50;3.90;;;12.50;99.90;;;;;;5051096;28;20237;-67
2021/10/31 09:06:28;;;;;;;4.57;3.90;;;12.70;99.90;;;;;;5051602;28;20234;-68
2021/10/31 09:08:55;;;;;;;3.33;2.93;;;12.90;99.90;;;;;;5051572;28;20172;-67
2021/10/31 09:11:21;;;;;;;3.50;3.23;;;12.80;99.90;;;;;;5052006;28;20929;-67
2021/10/31 09:13:51;;;;;;;4.10;3.80;;;12.80;99.90;;;;;;5050949;28;20489;-67
2021/10/31 09:16:17;;;;;;;5.77;5.23;;;12.90;99.90;;;;;;5051560;28;20164;-67
2021/10/31 09:18:44;;;;;;;4.27;3.90;;;12.90;99.90;;;;;;5051469;28;20407;-67
2021/10/31 09:21:11;;;;;;;6.80;3.60;;;13.10;99.90;;;;;;5051540;28;20518;-67
2021/10/31 09:23:37;;;;;;;4.40;3.20;;;13.30;99.90;;;;;;5051143;28;20462;-67
2021/10/31 09:26:04;;;;;;;3.10;2.90;;;13.50;99.90;;;;;;5051388;28;20410;-67
2021/10/31 09:28:30;;;;;;;3.00;2.80;;;13.80;99.90;;;;;;5051464;28;20441;-67
2021/10/31 09:30:55;;;;;;;2.63;2.53;;;14.10;99.90;;;;;;5051313;28;20434;-67
2021/10/31 09:33:21;;;;;;;3.03;2.83;;;14.30;99.90;;;;;;5051234;28;20207;-67
2021/10/31 09:35:47;;;;;;;2.90;2.70;;;14.30;99.90;;;;;;5053045;28;20186;-67
2021/10/31 09:38:14;;;;;;;4.20;3.40;;;14.30;99.90;;;;;;5055313;28;20262;-68
2021/10/31 09:40:40;;;;;;;2.70;2.60;;;14.20;99.90;;;;;;5055121;28;20410;-67
2021/10/31 09:43:06;;;;;;;2.93;2.80;;;14.30;99.90;;;;;;5054886;28;20972;-67
2021/10/31 09:45:33;;;;;;;3.43;2.90;;;14.40;99.90;;;;;;5055217;28;20717;-67
2021/10/31 09:48:17;;;;;;;3.10;2.80;;;14.40;99.90;;;;;;5055164;28;20179;-67
2021/10/31 09:50:46;;;;;;;2.93;2.77;;;14.60;99.90;;;;;;5055050;28;20394;-67
2021/10/31 09:53:16;;;;;;;5.90;2.53;;;14.80;99.90;;;;;;5054220;28;20429;-68
2021/10/31 09:55:42;;;;;;;3.20;3.00;;;15.20;99.90;;;;;;5055082;28;20410;-67
2021/10/31 09:58:17;;;;;;;3.93;3.63;;;15.40;99.90;;;;;;5054938;28;20418;-67
2021/10/31 10:00:49;;;;;;;3.10;2.87;;;15.50;99.90;;;;;;5054787;28;20406;-69
2021/10/31 10:03:36;;;;;;;2.67;2.57;;;15.80;99.90;;;;;;5054400;28;20937;-67
2021/10/31 10:06:19;;;;;;;3.13;2.80;;;16.10;99.90;;;;;;5054843;28;20398;-67
2021/10/31 10:09:01;;;;;;;3.10;2.90;;;16.30;99.90;;;;;;5054692;28;20735;-67
2021/10/31 10:11:28;;;;;;;3.00;2.80;;;16.60;99.80;;;;;;5054675;28;20433;-68
2021/10/31 10:13:54;;;;;;;3.50;2.40;;;16.60;99.20;;;;;;5053996;28;20524;-68
2021/10/31 10:16:22;;;;;;;3.50;3.30;;;17.10;99.30;;;;;;5054551;28;20415;-68
2021/10/31 10:18:48;;;;;;;3.33;3.13;;;17.50;98.00;;;;;;5054433;28;20211;-70
2021/10/31 10:21:22;;;;;;;3.43;3.23;;;17.50;97.50;;;;;;5054647;28;20820;-68
2021/10/31 10:23:57;;;;;;;3.20;3.10;;;17.10;97.70;;;;;;5054076;28;20988;-68
2021/10/31 10:26:35;;;;;;;3.30;3.10;;;17.00;98.40;;;;;;5054372;28;20404;-68
2021/10/31 10:29:18;;;;;;;3.57;3.27;;;16.60;98.40;;;;;;5054305;28;20406;-68
2021/10/31 10:31:51;;;;;;;3.40;3.20;;;16.10;99.40;;;;;;5054293;28;20498;-68
2021/10/31 10:34:29;;;;;;;4.00;3.80;;;15.70;99.90;;;;;;5053673;28;20454;-68
2021/10/31 10:36:56;;;;;;;3.47;3.27;;;15.60;99.90;;;;;;5054078;28;20405;-68
2021/10/31 10:39:22;;;;;;;3.20;3.00;;;15.40;99.90;;;;;;5054034;28;20445;-68
2021/10/31 10:41:53;;;;;;;3.30;3.00;;;15.30;99.90;;;;;;5054021;28;20394;-68
2021/10/31 10:44:31;;;;;;;3.23;3.00;;;15.50;99.90;;;;;;5053450;28;20426;-69
2021/10/31 10:47:03;;;;;;;4.60;4.30;;;15.40;99.90;;;;;;5053742;28;20464;-68
2021/10/31 10:49:32;;;;;;;3.60;3.30;;;15.30;99.90;;;;;;5053788;28;20402;-68
2021/10/31 10:52:07;;;;;;;3.23;2.97;;;15.30;99.90;;;;;;5053912;28;20410;-68
2021/10/31 10:54:37;;;;;;;2.77;2.63;;;15.50;99.90;;;;;;5053267;28;20489;-68
2021/10/31 10:57:06;;;;;;;2.50;2.40;;;15.80;99.90;;;;;;5053915;28;20391;-68
2021/10/31 10:59:33;;;;;;;2.37;2.27;;;16.20;99.90;;;;;;5053732;28;20402;-68
2021/10/31 11:02:16;;;;;;;3.13;2.77;;;16.50;99.90;;;;;;5053574;28;20455;-68
2021/10/31 11:04:44;;;;;;;2.90;2.80;;;16.30;99.80;;;;;;5035362;28;20434;-68
2021/10/31 11:07:11;;;;;;;3.20;2.90;;;16.10;99.90;;;;;;5053754;28;20900;-67
2021/10/31 11:09:46;;;;;;;2.97;2.80;;;15.80;99.90;;;;;;5053494;28;20410;-68
2021/10/31 11:12:35;;;;;;;2.83;2.73;;;15.90;99.90;;;;;;5053362;28;20413;-69
2021/10/31 11:15:22;;;;;;;3.20;2.93;;;16.30;99.60;;;;;;5053181;28;20454;-68
2021/10/31 11:17:50;;;;;;;3.10;2.90;;;16.30;99.30;;;;;;5053417;28;20918;-69
2021/10/31 11:20:19;;;;;;;2.50;2.40;;;16.30;99.10;;;;;;5053320;28;20918;-67
2021/10/31 11:22:47;;;;;;;2.20;2.10;;;16.10;99.30;;;;;;5053015;28;20406;-68
2021/10/31 11:25:17;;;;;;;2.73;2.63;;;16.20;99.50;;;;;;5053131;28;20422;-68
2021/10/31 11:27:43;;;;;;;3.03;2.83;;;16.20;99.90;;;;;;5053245;28;20899;-68
2021/10/31 11:30:10;;;;;;;3.17;2.97;;;16.30;99.60;;;;;;5053204;28;20438;-68
2021/10/31 11:32:37;;;;;;;2.70;2.60;;;16.50;99.60;;;;;;5053038;28;20414;-69
2021/10/31 11:35:04;;;;;;;3.23;3.03;;;16.20;99.00;;;;;;5052791;28;20484;-68
2021/10/31 11:37:40;;;;;;;3.07;2.97;;;16.20;99.90;;;;;;5052960;28;20453;-68
2021/10/31 11:40:07;;;;;;;2.90;2.70;;;16.20;99.40;;;;;;5052988;28;20799;-68
2021/10/31 11:42:39;;;;;;;2.77;2.57;;;16.00;99.40;;;;;;5052924;28;20417;-68
2021/10/31 11:45:22;;;;;;;3.03;2.83;;;15.90;99.90;;;;;;5052861;28;20427;-68
2021/10/31 11:48:19;;;;;;;2.43;2.33;;;15.90;99.90;;;;;;5052796;28;20403;-68
2021/10/31 11:51:00;;;;;;;4.70;2.80;;;16.00;99.90;;;;;;5052733;28;20434;-68
2021/10/31 11:53:32;;;;;;;2.73;2.53;;;16.00;99.90;;;;;;5052205;28;20468;-67
2021/10/31 11:56:02;;;;;;;3.10;2.90;;;16.00;99.90;;;;;;5052613;28;20437;-68
2021/10/31 11:58:34;;;;;;;2.27;2.17;;;16.10;99.90;;;;;;5052329;28;20395;-68
2021/10/31 12:01:05;;;;;;;2.40;2.30;;;16.50;99.90;;;;;;5052605;28;20398;-68
2021/10/31 12:03:49;;;;;;;3.00;2.90;;;16.90;98.90;;;;;;5052281;28;20792;-68
2021/10/31 12:06:15;;;;;;;2.50;2.40;;;17.10;97.80;;;;;;5052539;28;20410;-69
2021/10/31 12:08:54;;;;;;;2.90;2.80;;;17.30;97.90;;;;;;5052422;28;20463;-68
2021/10/31 12:11:40;;;;;;;2.90;2.80;;;17.10;97.50;;;;;;5052455;28;20160;-68
2021/10/31 12:14:12;;;;;;;4.40;4.10;;;17.00;98.00;;;;;;5041084;28;20464;-68
2021/10/31 12:16:57;;;;;;;3.63;3.43;;;17.00;98.00;;;;;;5052256;28;20415;-68
2021/10/31 12:19:43;;;;;;;3.00;2.90;;;16.80;98.40;;;;;;5052239;28;20406;-68
2021/10/31 12:22:27;;;;;;;3.17;3.07;;;16.80;98.20;;;;;;5052229;28;20441;-68
2021/10/31 12:25:09;;;;;;;2.97;2.77;;;16.80;97.80;;;;;;5051805;28;20430;-68
2021/10/31 12:27:40;;;;;;;2.50;2.40;;;16.60;98.30;;;;;;5052030;28;20444;-69
2021/10/31 12:30:30;;;;;;;2.80;2.60;;;16.50;98.70;;;;;;5051940;28;20544;-68
2021/10/31 12:33:05;;;;;;;3.07;2.87;;;16.40;98.90;;;;;;5051707;28;20430;-68
2021/10/31 12:35:35;;;;;;;2.60;2.50;;;16.30;99.30;;;;;;5051992;28;20419;-68
2021/10/31 12:38:16;;;;;;;3.70;3.40;;;16.60;99.40;;;;;;5052016;28;20414;-68
2021/10/31 12:41:04;;;;;;;2.43;2.33;;;16.80;98.90;;;;;;5051971;28;20394;-68
2021/10/31 12:43:39;;;;;;;3.00;2.80;;;16.80;98.70;;;;;;5051507;28;20445;-68
2021/10/31 12:46:26;;;;;;;2.43;2.33;;;16.70;98.70;;;;;;5051691;28;20432;-68
2021/10/31 12:48:57;;;;;;;3.13;3.03;;;16.70;98.90;;;;;;5051951;28;20411;-69
2021/10/31 12:51:54;;;;;;;2.77;2.67;;;16.60;99.30;;;;;;5051905;28;20394;-70
2021/10/31 12:54:24;;;;;;;5.33;2.50;;;16.60;99.60;;;;;;5043949;28;20485;-68
2021/10/31 12:56:51;;;;;;;2.90;2.80;;;16.60;99.90;;;;;;5052038;28;20600;-68
2021/10/31 12:59:17;;;;;;;2.93;2.83;;;16.70;99.90;;;;;;5051635;28;20410;-68
2021/10/31 13:01:44;;;;;;;3.63;3.00;;;16.70;99.90;;;;;;5051666;28;20410;-69
2021/10/31 13:04:10;;;;;;;2.40;2.30;;;16.60;99.90;;;;;;5051386;28;20426;-68